createdAt,value
2019-02-26T00:01:35.328Z,103557.58
2019-02-26T00:04:06.496Z,103567.26
2019-02-26T00:06:42.437Z,103570.66
2019-02-26T00:09:18.170Z,103580.23
2019-02-26T00:11:48.076Z,103582.91
2019-02-26T00:14:20.711Z,103581.52
2019-02-26T00:16:54.491Z,103572.48
2019-02-26T00:19:26.067Z,103582.44
2019-02-26T00:21:58.196Z,103583.80
2019-02-26T00:24:30.787Z,103589.58
2019-02-26T00:27:03.796Z,103605.09
2019-02-26T00:29:36.253Z,103615.31
2019-02-26T00:32:10.091Z,103629.05
2019-02-26T00:34:41.481Z,103620.59
2019-02-26T00:37:55.707Z,103605.27
2019-02-26T00:40:27.275Z,103597.67
2019-02-26T00:43:00.175Z,103606.81
2019-02-26T00:45:33.564Z,103614.52
2019-02-26T00:48:04.611Z,103592.48
2019-02-26T00:50:37.511Z,103596.50
2019-02-26T00:53:10.731Z,103599.16
2019-02-26T00:55:41.969Z,103593.23
2019-02-26T00:58:13.276Z,103600.64
2019-02-26T01:00:44.968Z,103596.23
2019-02-26T01:03:16.791Z,103588.61
2019-02-26T01:05:48.168Z,103588.80
2019-02-26T01:08:19.911Z,103564.82
2019-02-26T01:10:51.525Z,103549.28
2019-02-26T01:13:25.630Z,103534.16
2019-02-26T01:15:56.911Z,103532.46
2019-02-26T01:18:29.097Z,103539.15
2019-02-26T01:21:02.534Z,103541.87
2019-02-26T01:23:34.225Z,103534.34
2019-02-26T01:26:06.113Z,103527.11
2019-02-26T01:28:39.555Z,103528.84
2019-02-26T01:31:11.032Z,103526.38
2019-02-26T01:33:42.284Z,103532.80
2019-02-26T01:36:13.968Z,103531.11
2019-02-26T01:38:48.697Z,103531.62
2019-02-26T01:41:20.989Z,103531.42
2019-02-26T01:43:52.601Z,103532.80
2019-02-26T01:46:23.972Z,103521.94
2019-02-26T01:48:57.432Z,103531.41
2019-02-26T01:51:29.338Z,103548.54
2019-02-26T01:54:01.459Z,103558.59
2019-02-26T01:56:36.282Z,103569.80
2019-02-26T01:59:07.255Z,103573.73
2019-02-26T02:01:42.071Z,103563.81
2019-02-26T02:04:12.880Z,103565.80
2019-02-26T02:06:44.566Z,103552.13
2019-02-26T02:09:17.684Z,103537.50
2019-02-26T02:11:48.792Z,103544.31
2019-02-26T02:14:21.020Z,103530.62
2019-02-26T02:16:52.368Z,103530.64
2019-02-26T02:19:25.725Z,103531.45
2019-02-26T02:21:58.277Z,103536.09
2019-02-26T02:24:31.810Z,103551.04
2019-02-26T02:27:03.524Z,103560.87
2019-02-26T02:29:34.817Z,103623.36
2019-02-26T02:32:07.710Z,103638.21
2019-02-26T02:34:42.923Z,103619.30
2019-02-26T02:37:15.341Z,103635.96
2019-02-26T02:39:47.210Z,103610.41
2019-02-26T02:42:21.297Z,103601.58
2019-02-26T02:44:52.818Z,103597.47
2019-02-26T02:47:25.316Z,103597.88
2019-02-26T02:49:57.941Z,103587.64
2019-02-26T02:52:30.362Z,103598.11
2019-02-26T02:55:04.567Z,103597.52
2019-02-26T02:57:35.843Z,103584.77
2019-02-26T03:00:08.901Z,103578.35
2019-02-26T03:02:42.884Z,103578.38
2019-02-26T03:05:13.614Z,103558.91
2019-02-26T03:07:48.850Z,103556.06
2019-02-26T03:10:18.281Z,103551.95
2019-02-26T03:12:53.854Z,103561.95
2019-02-26T03:15:24.589Z,103563.95
2019-02-26T03:17:57.198Z,103573.77
2019-02-26T03:20:30.826Z,103576.73
2019-02-26T03:23:01.490Z,103573.98
2019-02-26T03:25:32.788Z,103581.39
2019-02-26T03:28:04.338Z,103581.03
2019-02-26T03:30:40.603Z,103596.55
2019-02-26T03:33:08.843Z,103606.81
2019-02-26T03:35:40.532Z,103618.95
2019-02-26T03:38:11.746Z,103616.31
2019-02-26T03:40:43.319Z,103607.46
2019-02-26T03:43:16.282Z,103604.21
2019-02-26T03:45:48.231Z,103589.91
2019-02-26T03:48:20.501Z,103580.55
2019-02-26T03:50:51.908Z,103573.56
2019-02-26T03:53:25.591Z,103573.46
2019-02-26T03:56:01.926Z,103558.64
2019-02-26T03:58:29.816Z,103546.85
2019-02-26T04:01:04.583Z,103550.30
2019-02-26T04:03:37.623Z,103553.75
2019-02-26T04:06:09.976Z,103560.77
2019-02-26T04:08:42.316Z,103556.97
2019-02-26T04:11:16.538Z,103554.09
2019-02-26T04:13:49.362Z,103547.98
2019-02-26T04:16:20.109Z,103543.66
2019-02-26T04:18:52.104Z,103533.83
2019-02-26T04:21:23.548Z,103528.16
2019-02-26T04:23:54.848Z,103527.92
2019-02-26T04:27:04.138Z,103523.64
2019-02-26T04:29:59.691Z,103508.27
2019-02-26T04:33:20.671Z,103506.94
2019-02-26T04:36:02.329Z,103523.62
2019-02-26T04:39:01.631Z,103519.86
2019-02-26T04:42:20.541Z,103507.16
2019-02-26T04:45:30.310Z,103508.39
2019-02-26T04:48:01.759Z,103518.14
2019-02-26T04:50:35.511Z,103514.20
2019-02-26T04:53:08.548Z,103511.89
2019-02-26T04:55:41.532Z,103514.84
2019-02-26T04:58:14.934Z,103513.96
2019-02-26T05:00:45.326Z,103512.52
2019-02-26T05:03:18.148Z,103515.06
2019-02-26T05:05:53.737Z,103502.34
2019-02-26T05:08:23.026Z,103507.57
2019-02-26T05:10:57.250Z,103478.91
2019-02-26T05:13:29.314Z,103468.17
2019-02-26T05:16:00.721Z,103459.20
2019-02-26T05:18:34.402Z,103452.81
2019-02-26T05:21:08.273Z,103450.88
2019-02-26T05:23:38.749Z,103448.66
2019-02-26T05:26:11.655Z,103444.83
2019-02-26T05:28:44.236Z,103446.84
2019-02-26T05:31:17.525Z,103451.84
2019-02-26T05:33:50.149Z,103460.75
2019-02-26T05:36:22.391Z,103463.48
2019-02-26T05:38:56.989Z,103455.70
2019-02-26T05:41:27.874Z,103448.94
2019-02-26T05:44:03.490Z,103456.13
2019-02-26T05:46:32.017Z,103457.73
2019-02-26T05:49:06.845Z,103457.55
2019-02-26T05:51:38.202Z,103458.78
2019-02-26T05:54:12.229Z,103457.58
2019-02-26T05:56:46.138Z,103455.77
2019-02-26T05:59:18.121Z,103461.88
2019-02-26T06:01:52.733Z,103471.88
2019-02-26T06:04:22.984Z,103469.34
2019-02-26T06:06:56.405Z,103471.48
2019-02-26T06:09:30.551Z,103475.02
2019-02-26T06:12:01.727Z,103471.39
2019-02-26T06:14:35.931Z,103470.75
2019-02-26T06:17:07.357Z,103482.83
2019-02-26T06:19:47.565Z,103473.06
2019-02-26T06:22:21.321Z,103470.42
2019-02-26T06:24:54.951Z,103462.27
2019-02-26T06:27:27.298Z,103452.64
2019-02-26T06:30:00.776Z,103448.71
2019-02-26T06:32:34.537Z,103460.45
2019-02-26T06:35:08.521Z,103465.68
2019-02-26T06:37:40.391Z,103463.37
2019-02-26T06:40:12.902Z,103465.28
2019-02-26T06:42:44.260Z,103458.71
2019-02-26T06:45:17.184Z,103456.27
2019-02-26T06:47:51.333Z,103455.72
2019-02-26T06:50:26.069Z,103461.41
2019-02-26T06:52:57.497Z,103457.99
2019-02-26T06:55:28.688Z,103446.91
2019-02-26T06:58:29.970Z,103453.64
2019-02-26T07:01:01.550Z,103454.86
2019-02-26T07:03:32.886Z,103462.56
2019-02-26T07:06:04.960Z,103469.50
2019-02-26T07:08:36.281Z,103466.94
2019-02-26T07:11:07.519Z,103462.92
2019-02-26T07:13:41.045Z,103452.01
2019-02-26T07:16:34.713Z,103445.70
2019-02-26T07:19:06.521Z,103435.38
2019-02-26T07:21:40.641Z,103419.69
2019-02-26T07:24:12.138Z,103419.90
2019-02-26T07:26:46.393Z,103411.25
2019-02-26T07:29:17.665Z,103405.36
2019-02-26T07:31:49.519Z,103408.00
2019-02-26T07:34:22.778Z,103397.03
2019-02-26T07:36:55.841Z,103394.31
2019-02-26T07:39:27.823Z,103383.39
2019-02-26T07:42:00.569Z,103372.46
2019-02-26T07:44:32.383Z,103382.77
2019-02-26T07:47:06.685Z,103380.62
2019-02-26T07:49:38.627Z,103368.09
2019-02-26T07:52:10.085Z,103369.23
2019-02-26T07:54:42.783Z,103377.39
2019-02-26T07:57:15.741Z,103368.95
2019-02-26T07:59:50.199Z,103376.00
2019-02-26T08:02:22.176Z,103376.53
2019-02-26T08:04:53.802Z,103373.09
2019-02-26T08:07:26.783Z,103370.03
2019-02-26T08:09:59.806Z,103371.08
2019-02-26T08:12:35.054Z,103376.01
2019-02-26T08:15:08.710Z,103355.47
2019-02-26T08:17:40.448Z,103366.14
2019-02-26T08:20:14.881Z,103356.34
2019-02-26T08:22:46.843Z,103364.75
2019-02-26T08:25:18.486Z,103354.89
2019-02-26T08:27:51.761Z,103358.02
2019-02-26T08:30:25.891Z,103360.00
2019-02-26T08:32:58.917Z,103355.58
2019-02-26T08:35:34.255Z,103353.41
2019-02-26T08:38:06.375Z,103351.78
2019-02-26T08:40:37.793Z,103346.48
2019-02-26T08:43:09.140Z,103324.26
2019-02-26T08:45:40.527Z,103325.58
2019-02-26T08:48:13.263Z,103319.38
2019-02-26T08:50:46.317Z,103321.14
2019-02-26T08:53:19.616Z,103318.03
2019-02-26T08:55:56.336Z,103312.22
2019-02-26T08:58:31.996Z,103318.90
2019-02-26T09:01:06.659Z,103310.00
2019-02-26T09:03:40.958Z,103316.67
2019-02-26T09:06:13.599Z,103322.48
2019-02-26T09:08:46.525Z,103316.25
2019-02-26T09:11:19.705Z,103314.03
2019-02-26T09:13:52.009Z,103299.75
2019-02-26T09:16:27.650Z,103299.30
2019-02-26T09:18:59.304Z,103303.78
2019-02-26T09:21:31.337Z,103297.53
2019-02-26T09:24:07.689Z,103294.84
2019-02-26T09:26:40.734Z,103297.09
2019-02-26T09:29:24.583Z,103301.07
2019-02-26T09:31:55.996Z,103297.08
2019-02-26T09:34:29.330Z,103298.36
2019-02-26T09:37:05.749Z,103296.64
2019-02-26T09:39:40.591Z,103301.52
2019-02-26T09:42:13.544Z,103306.84
2019-02-26T09:45:04.662Z,103296.12
2019-02-26T09:47:40.349Z,103301.44
2019-02-26T09:53:20.072Z,103299.62
2019-02-26T09:55:52.400Z,103303.64
2019-02-26T09:58:48.441Z,103295.08
2019-02-26T10:01:51.274Z,103304.00
2019-02-26T10:04:31.924Z,103309.76
2019-02-26T10:07:08.855Z,103312.38
2019-02-26T10:09:45.733Z,103302.88
2019-02-26T10:12:15.810Z,103312.32
2019-02-26T10:14:49.719Z,103321.66
2019-02-26T10:17:21.529Z,103324.38
2019-02-26T10:19:55.022Z,103318.48
2019-02-26T10:22:28.952Z,103314.95
2019-02-26T10:25:01.322Z,103324.80
2019-02-26T10:27:38.278Z,103322.91
2019-02-26T10:30:47.897Z,103319.74
2019-02-26T10:33:21.123Z,103337.94
2019-02-26T10:35:52.660Z,103336.56
2019-02-26T10:38:28.885Z,103337.95
2019-02-26T10:40:59.716Z,103346.88
2019-02-26T10:43:31.857Z,103350.92
2019-02-26T10:46:04.723Z,103352.16
2019-02-26T10:48:36.245Z,103356.12
2019-02-26T10:51:07.654Z,103356.43
2019-02-26T10:53:39.313Z,103358.64
2019-02-26T10:56:11.204Z,103369.80
2019-02-26T10:58:42.568Z,103371.06
2019-02-26T11:01:14.352Z,103373.72
2019-02-26T11:03:49.290Z,103367.52
2019-02-26T11:06:22.419Z,103363.41
2019-02-26T11:08:55.721Z,103362.55
2019-02-26T11:11:30.531Z,103367.83
2019-02-26T11:14:05.259Z,103357.41
2019-02-26T11:16:39.154Z,103347.89
2019-02-26T11:19:12.345Z,103350.38
2019-02-26T11:21:47.345Z,103349.10
2019-02-26T11:24:19.352Z,103346.19
2019-02-26T11:26:51.625Z,103351.18
2019-02-26T11:29:23.060Z,103349.73
2019-02-26T11:31:54.588Z,103349.92
2019-02-26T11:34:28.579Z,103351.72
2019-02-26T11:37:02.781Z,103343.14
2019-02-26T11:39:37.059Z,103335.45
2019-02-26T11:42:21.211Z,103325.59
2019-02-26T11:44:52.383Z,103318.21
2019-02-26T11:47:40.935Z,103314.75
2019-02-26T11:50:32.832Z,103305.33
2019-02-26T11:53:09.921Z,103307.50
2019-02-26T11:55:43.431Z,103301.13
2019-02-26T11:58:19.894Z,103306.92
2019-02-26T12:01:14.676Z,103307.23
2019-02-26T12:03:47.281Z,103301.64
2019-02-26T12:06:20.771Z,103300.90
2019-02-26T12:08:54.251Z,103296.02
2019-02-26T12:11:26.032Z,103298.71
2019-02-26T12:13:57.897Z,103298.60
2019-02-26T12:16:30.570Z,103297.59
2019-02-26T12:19:04.056Z,103303.12
2019-02-26T12:21:37.041Z,103302.61
2019-02-26T12:24:12.450Z,103297.44
2019-02-26T12:26:44.686Z,103286.03
2019-02-26T12:29:16.199Z,103285.00
2019-02-26T12:31:53.834Z,103294.37
2019-02-26T12:34:25.170Z,103291.88
2019-02-26T12:37:02.130Z,103284.59
2019-02-26T12:39:32.731Z,103285.75
2019-02-26T12:42:08.054Z,103283.61
2019-02-26T12:44:44.822Z,103274.12
2019-02-26T12:47:17.831Z,103266.95
2019-02-26T12:49:58.563Z,103256.28
2019-02-26T12:52:34.256Z,103253.28
2019-02-26T12:55:09.951Z,103250.19
2019-02-26T12:57:43.305Z,103247.86
2019-02-26T13:00:20.062Z,103238.53
2019-02-26T13:02:52.299Z,103228.38
2019-02-26T13:05:23.539Z,103226.56
2019-02-26T13:07:57.018Z,103223.17
2019-02-26T13:10:30.643Z,103210.86
2019-02-26T13:13:06.552Z,103213.59
2019-02-26T13:15:39.110Z,103210.63
2019-02-26T13:18:11.324Z,103209.28
2019-02-26T13:20:43.301Z,103218.23
2019-02-26T13:23:19.576Z,103204.12
2019-02-26T13:25:48.482Z,103198.02
2019-02-26T13:28:29.690Z,103192.72
2019-02-26T13:31:04.791Z,103189.09
2019-02-26T13:33:38.538Z,103193.09
2019-02-26T13:36:09.108Z,103187.00
2019-02-26T13:39:00.184Z,103187.14
2019-02-26T13:41:38.614Z,103184.33
2019-02-26T13:44:07.047Z,103193.18
2019-02-26T13:46:42.763Z,103196.70
2019-02-26T13:49:14.230Z,103200.31
2019-02-26T13:51:45.703Z,103209.35
2019-02-26T13:54:19.165Z,103213.80
2019-02-26T13:56:50.906Z,103209.20
2019-02-26T13:59:23.455Z,103203.28
2019-02-26T14:01:55.028Z,103203.20
2019-02-26T14:04:27.602Z,103202.14
2019-02-26T14:06:58.978Z,103203.69
2019-02-26T14:09:30.513Z,103210.63
2019-02-26T14:12:03.978Z,103203.33
2019-02-26T14:14:36.041Z,103203.45
2019-02-26T14:17:27.671Z,103206.41
2019-02-26T14:20:03.698Z,103202.80
2019-02-26T14:22:35.442Z,103196.08
2019-02-26T14:25:09.653Z,103199.95
2019-02-26T14:27:41.999Z,103190.90
2019-02-26T14:30:14.508Z,103182.19
2019-02-26T14:32:49.810Z,103193.98
2019-02-26T14:35:21.521Z,103195.89
2019-02-26T14:37:55.875Z,103190.07
2019-02-26T14:40:27.907Z,103189.53
2019-02-26T14:43:07.273Z,103193.30
2019-02-26T14:46:00.827Z,103201.11
2019-02-26T14:48:52.338Z,103196.47
2019-02-26T14:51:45.911Z,103194.02
2019-02-26T14:55:08.489Z,103187.66
2019-02-26T14:57:42.621Z,103191.08
2019-02-26T15:00:41.131Z,103185.45
2019-02-26T15:03:35.948Z,103193.11
2019-02-26T15:06:20.605Z,103194.38
2019-02-26T15:09:12.236Z,103185.30
2019-02-26T15:11:46.744Z,103195.76
2019-02-26T15:14:20.637Z,103202.98
2019-02-26T15:17:02.578Z,103193.46
2019-02-26T15:19:49.430Z,103201.70
2019-02-26T15:22:16.826Z,103205.78
2019-02-26T15:28:23.871Z,103204.36
2019-02-26T15:31:07.024Z,103208.24
2019-02-26T15:33:39.532Z,103208.10
2019-02-26T15:36:22.312Z,103201.22
2019-02-26T15:38:57.818Z,103199.16
2019-02-26T15:41:48.180Z,103195.59
2019-02-26T15:44:35.854Z,103209.50
2019-02-26T15:47:39.945Z,103209.22
2019-02-26T15:51:14.368Z,103209.63
2019-02-26T15:59:35.623Z,103217.33
2019-02-26T16:02:07.526Z,103210.94
2019-02-26T16:04:38.916Z,103221.44
2019-02-26T16:07:11.535Z,103226.54
2019-02-26T16:09:42.774Z,103223.69
2019-02-26T16:12:14.151Z,103227.01
2019-02-26T16:14:45.807Z,103231.35
2019-02-26T16:17:17.291Z,103236.58
2019-02-26T16:19:49.227Z,103231.30
2019-02-26T16:22:23.251Z,103234.70
2019-02-26T16:24:55.144Z,103233.51
2019-02-26T16:27:28.281Z,103232.60
2019-02-26T16:30:00.308Z,103240.43
2019-02-26T16:32:32.132Z,103239.33
2019-02-26T16:35:03.780Z,103240.61
2019-02-26T16:37:35.532Z,103255.15
2019-02-26T16:40:09.647Z,103254.30
2019-02-26T16:42:44.334Z,103256.94
2019-02-26T16:45:17.777Z,103253.23
2019-02-26T16:47:49.512Z,103259.81
2019-02-26T16:50:22.954Z,103264.28
2019-02-26T16:52:54.784Z,103265.27
2019-02-26T16:55:26.174Z,103267.84
2019-02-26T16:58:02.357Z,103267.37
2019-02-26T17:00:33.029Z,103269.41
2019-02-26T17:03:07.416Z,103270.44
2019-02-26T17:05:40.800Z,103271.05
2019-02-26T17:08:12.589Z,103276.39
2019-02-26T17:10:44.251Z,103270.76
2019-02-26T17:13:16.359Z,103273.66
2019-02-26T17:15:49.426Z,103265.27
2019-02-26T17:18:21.939Z,103267.58
2019-02-26T17:20:56.934Z,103269.44
2019-02-26T17:23:29.224Z,103263.70
2019-02-26T17:26:01.180Z,103258.38
2019-02-26T17:28:33.563Z,103262.38
2019-02-26T17:31:06.343Z,103265.06
2019-02-26T17:33:38.771Z,103262.85
2019-02-26T17:36:10.077Z,103258.38
2019-02-26T17:38:41.251Z,103252.54
2019-02-26T17:41:13.293Z,103256.09
2019-02-26T17:43:44.527Z,103260.02
2019-02-26T17:46:16.551Z,103256.94
2019-02-26T17:48:48.925Z,103252.48
2019-02-26T17:51:21.413Z,103250.25
2019-02-26T17:53:53.023Z,103251.61
2019-02-26T17:56:26.724Z,103257.89
2019-02-26T17:58:58.781Z,103263.55
2019-02-26T18:01:30.048Z,103249.92
2019-02-26T18:04:02.327Z,103250.44
2019-02-26T18:09:20.619Z,103257.63
2019-02-26T18:11:52.409Z,103244.75
2019-02-26T18:14:24.712Z,103243.91
2019-02-26T18:16:58.785Z,103248.95
2019-02-26T18:19:30.216Z,103233.28
2019-02-26T18:22:01.634Z,103236.47
2019-02-26T18:24:32.983Z,103241.37
2019-02-26T18:27:04.413Z,103248.62
2019-02-26T18:29:36.345Z,103249.97
2019-02-26T18:32:10.819Z,103237.88
2019-02-26T18:34:41.347Z,103239.23
2019-02-26T18:37:13.040Z,103246.95
2019-02-26T18:39:45.515Z,103245.62
2019-02-26T18:42:17.136Z,103243.84
2019-02-26T18:44:49.437Z,103249.54
2019-02-26T18:47:23.968Z,103245.70
2019-02-26T18:50:02.707Z,103242.62
2019-02-26T18:52:41.209Z,103244.86
2019-02-26T18:55:12.858Z,103257.91
2019-02-26T18:57:44.603Z,103258.39
2019-02-26T19:00:25.987Z,103255.74
2019-02-26T19:03:01.605Z,103261.12
2019-02-26T19:05:34.438Z,103246.42
2019-02-26T19:08:06.627Z,103246.42
2019-02-26T19:10:40.238Z,103250.02
2019-02-26T19:13:13.835Z,103249.59
2019-02-26T19:15:47.690Z,103256.78
2019-02-26T19:18:23.351Z,103252.75
2019-02-26T19:20:54.869Z,103250.09
2019-02-26T19:23:26.280Z,103243.37
2019-02-26T19:25:58.730Z,103244.30
2019-02-26T19:28:30.464Z,103239.45
2019-02-26T19:31:03.379Z,103228.27
2019-02-26T19:33:34.856Z,103235.83
2019-02-26T19:36:07.151Z,103239.38
2019-02-26T19:38:41.498Z,103230.97
2019-02-26T19:41:15.725Z,103229.64
2019-02-26T19:43:48.309Z,103235.43
2019-02-26T19:49:13.206Z,103228.32
2019-02-26T19:51:45.800Z,103226.09
2019-02-26T19:54:17.787Z,103232.83
2019-02-26T19:56:49.879Z,103235.55
2019-02-26T19:59:23.567Z,103234.22
2019-02-26T20:01:59.665Z,103231.58
2019-02-26T20:04:38.660Z,103222.66
2019-02-26T20:07:53.235Z,103224.45
2019-02-26T20:10:32.371Z,103215.98
2019-02-26T20:28:21.616Z,103194.60
2019-02-26T20:30:53.137Z,103191.01
2019-02-26T20:33:24.579Z,103186.13
2019-02-26T20:35:56.085Z,103182.11
2019-02-26T20:38:35.019Z,103187.04
2019-02-26T20:41:03.445Z,103187.47
2019-02-26T20:43:36.813Z,103179.91
2019-02-26T20:46:08.860Z,103175.01
2019-02-26T20:48:40.055Z,103176.81
2019-02-26T20:51:11.277Z,103173.70
2019-02-26T20:53:42.562Z,103163.91
2019-02-26T20:56:13.847Z,103165.70
2019-02-26T20:58:45.464Z,103162.57
2019-02-26T21:01:16.824Z,103160.34
2019-02-26T21:03:48.434Z,103145.23
2019-02-26T21:06:19.714Z,103152.80
2019-02-26T21:08:51.014Z,103142.98
2019-02-26T21:11:23.336Z,103138.55
2019-02-26T21:13:55.102Z,103146.56
2019-02-26T21:16:26.282Z,103139.43
2019-02-26T21:18:57.499Z,103136.33
2019-02-26T21:21:30.257Z,103134.98
2019-02-26T21:24:01.478Z,103133.63
2019-02-26T21:26:33.128Z,103131.86
2019-02-26T21:29:06.457Z,103134.98
2019-02-26T21:31:38.901Z,103135.42
2019-02-26T21:34:10.338Z,103135.86
2019-02-26T21:36:41.594Z,103126.09
2019-02-26T21:39:12.830Z,103120.72
2019-02-26T21:41:44.109Z,103126.97
2019-02-26T21:44:15.733Z,103124.69
2019-02-26T21:46:47.006Z,103116.20
2019-02-26T21:49:18.364Z,103121.55
2019-02-26T21:51:50.691Z,103127.33
2019-02-26T21:54:24.739Z,103118.45
2019-02-26T21:56:55.723Z,103125.09
2019-02-26T21:59:26.844Z,103118.47
2019-02-26T22:01:59.048Z,103114.00
2019-02-26T22:04:31.961Z,103113.09
2019-02-26T22:07:03.267Z,103108.16
2019-02-26T22:09:34.890Z,103106.85
2019-02-26T22:12:06.188Z,103114.37
2019-02-26T22:14:37.545Z,103108.61
2019-02-26T22:17:08.731Z,103110.34
2019-02-26T22:19:40.076Z,103109.49
2019-02-26T22:22:13.781Z,103104.97
2019-02-26T22:24:46.185Z,103107.25
2019-02-26T22:27:17.654Z,103103.67
2019-02-26T22:29:48.928Z,103100.16
2019-02-26T22:32:20.153Z,103105.01
2019-02-26T22:34:53.589Z,103098.34
2019-02-26T22:37:24.384Z,103100.55
2019-02-26T22:39:55.833Z,103099.67
2019-02-26T22:42:28.723Z,103096.55
2019-02-26T22:45:01.409Z,103098.83
2019-02-26T22:47:33.220Z,103097.01
2019-02-26T22:50:04.471Z,103096.12
2019-02-26T22:52:36.991Z,103099.19
2019-02-26T22:55:09.265Z,103099.64
2019-02-26T22:57:40.970Z,103092.48
2019-02-26T23:00:50.728Z,103087.16
2019-02-26T23:03:46.890Z,103086.31
2019-02-26T23:06:18.346Z,103088.06
2019-02-26T23:08:50.024Z,103083.64
2019-02-26T23:11:21.789Z,103077.02
2019-02-26T23:13:54.391Z,103085.85
2019-02-26T23:16:26.950Z,103083.61
2019-02-26T23:19:03.517Z,103078.24
2019-02-26T23:21:36.478Z,103074.70
2019-02-26T23:24:10.606Z,103077.78
2019-02-26T23:26:43.323Z,103075.53
2019-02-26T23:29:16.507Z,103080.80
2019-02-26T23:31:47.855Z,103075.02
2019-02-26T23:34:22.151Z,103075.84
2019-02-26T23:36:52.703Z,103072.77
2019-02-26T23:39:24.910Z,103072.41
2019-02-26T23:41:58.058Z,103069.28
2019-02-26T23:44:29.387Z,103070.06
2019-02-26T23:48:34.193Z,103056.78
2019-02-26T23:51:05.641Z,103059.86
2019-02-26T23:53:36.890Z,103061.18
2019-02-26T23:56:09.024Z,103062.52
2019-02-26T23:58:48.700Z,103062.11
